Time;durP1;ratioP1;P1;durP2;ratioP2;P2;SDS_P1;SDS_P2;PMS_P1;PMS_P2;Temp;Humidity;BMP_temperature;BMP_pressure;BME280_temperature;BME280_humidity;BME280_pressure;Samples;Min_cycle;Max_cycle;Signal;HPM_P1;HPM_P2
2024/03/02 00:01:47;;;;;;;21.33;15.20;;;;;;;;;;748803;184;933583;-66
2024/03/02 00:04:13;;;;;;;21.20;15.10;;;;;;;;;;747873;185;894792;-67
2024/03/02 00:06:39;;;;;;;20.73;15.17;;;;;;;;;;754220;185;918033;-67
2024/03/02 00:09:05;;;;;;;21.13;14.13;;;;;;;;;;750717;184;920528;-66
2024/03/02 00:11:31;;;;;;;24.25;17.12;;;;;;;;;;745606;185;917855;-66
2024/03/02 00:13:56;;;;;;;22.50;15.97;;;;;;;;;;754310;185;887835;-67
2024/03/02 00:16:24;;;;;;;24.90;13.97;;;;;;;;;;752784;184;919339;-65
2024/03/02 00:18:48;;;;;;;26.10;17.73;;;;;;;;;;750357;183;919849;-66
2024/03/02 00:21:16;;;;;;;22.47;16.43;;;;;;;;;;750338;185;858856;-66
2024/03/02 00:23:40;;;;;;;23.90;16.33;;;;;;;;;;754946;184;916548;-66
2024/03/02 00:26:06;;;;;;;22.40;15.63;;;;;;;;;;748570;185;922148;-65
2024/03/02 00:28:34;;;;;;;19.63;14.63;;;;;;;;;;749846;185;815350;-66
2024/03/02 00:31:04;;;;;;;22.60;15.57;;;;;;;;;;756330;184;900525;-66
2024/03/02 00:33:32;;;;;;;25.05;17.05;;;;;;;;;;751555;185;915896;-67
2024/03/02 00:35:59;;;;;;;22.07;14.00;;;;;;;;;;752335;185;842649;-67
2024/03/02 00:38:23;;;;;;;22.80;15.10;;;;;;;;;;749303;185;914092;-66
2024/03/02 00:40:49;;;;;;;26.50;14.40;;;;;;;;;;755233;185;920271;-67
2024/03/02 00:43:36;;;;;;;25.47;15.27;;;;;;;;;;746152;184;914202;-65
2024/03/02 00:46:02;;;;;;;23.40;16.97;;;;;;;;;;750749;185;856767;-68
2024/03/02 00:48:27;;;;;;;25.30;17.00;;;;;;;;;;750682;185;889540;-68
2024/03/02 00:50:53;;;;;;;17.90;12.10;;;;;;;;;;754298;185;912312;-67
2024/03/02 00:53:19;;;;;;;20.03;13.20;;;;;;;;;;750592;185;878455;-68
2024/03/02 00:55:47;;;;;;;19.83;13.27;;;;;;;;;;757600;184;634423;-68
2024/03/02 00:58:11;;;;;;;19.37;14.27;;;;;;;;;;751228;184;842621;-68
2024/03/02 01:00:37;;;;;;;18.60;14.53;;;;;;;;;;765169;182;627140;-67
2024/03/02 01:03:03;;;;;;;19.10;13.37;;;;;;;;;;758632;183;613281;-68
2024/03/02 01:05:29;;;;;;;17.90;12.33;;;;;;;;;;758717;185;691745;-67
2024/03/02 01:07:54;;;;;;;25.40;14.77;;;;;;;;;;757165;184;712770;-66
2024/03/02 01:10:20;;;;;;;24.87;16.20;;;;;;;;;;748888;184;1227023;-68
2024/03/02 01:12:46;;;;;;;22.60;15.77;;;;;;;;;;747457;185;1123760;-68
2024/03/02 01:15:12;;;;;;;27.60;15.10;;;;;;;;;;757109;184;820572;-67
2024/03/02 01:17:38;;;;;;;27.13;14.43;;;;;;;;;;754413;185;919728;-67
2024/03/02 01:20:04;;;;;;;25.80;16.30;;;;;;;;;;751723;185;984895;-68
2024/03/02 01:22:30;;;;;;;17.70;13.88;;;;;;;;;;751362;185;889827;-67
2024/03/02 01:24:56;;;;;;;23.03;15.97;;;;;;;;;;752289;185;815831;-68
2024/03/02 01:27:22;;;;;;;25.43;15.17;;;;;;;;;;747859;184;923983;-68
2024/03/02 01:29:48;;;;;;;23.57;14.63;;;;;;;;;;749579;183;918697;-67
2024/03/02 01:32:14;;;;;;;19.33;14.10;;;;;;;;;;757469;184;918325;-67
2024/03/02 01:34:40;;;;;;;21.83;13.77;;;;;;;;;;749540;182;919449;-66
2024/03/02 01:37:06;;;;;;;26.00;14.20;;;;;;;;;;753697;185;851366;-67
2024/03/02 01:39:31;;;;;;;21.77;14.33;;;;;;;;;;754929;185;816274;-67
2024/03/02 01:41:57;;;;;;;21.40;13.73;;;;;;;;;;753917;185;919887;-67
2024/03/02 01:44:23;;;;;;;27.93;15.30;;;;;;;;;;751512;185;816751;-67
2024/03/02 01:46:49;;;;;;;25.93;16.83;;;;;;;;;;754313;185;819983;-67
2024/03/02 01:49:15;;;;;;;25.50;17.90;;;;;;;;;;749444;185;918865;-66
2024/03/02 01:51:40;;;;;;;22.53;14.07;;;;;;;;;;750391;185;940100;-67
2024/03/02 01:54:06;;;;;;;17.60;13.30;;;;;;;;;;751375;184;805484;-66
2024/03/02 01:56:32;;;;;;;18.27;14.23;;;;;;;;;;757200;184;758695;-67
2024/03/02 01:58:58;;;;;;;17.07;13.50;;;;;;;;;;749170;185;921738;-67
2024/03/02 02:01:24;;;;;;;19.03;12.83;;;;;;;;;;749180;184;918436;-66
2024/03/02 02:03:50;;;;;;;27.70;15.73;;;;;;;;;;753518;184;917486;-67
2024/03/02 02:06:15;;;;;;;19.97;13.03;;;;;;;;;;750172;184;918227;-67
2024/03/02 02:08:41;;;;;;;19.27;13.73;;;;;;;;;;750974;184;922124;-67
2024/03/02 02:11:07;;;;;;;23.00;13.15;;;;;;;;;;754982;185;912353;-68
2024/03/02 02:13:33;;;;;;;24.10;14.23;;;;;;;;;;746321;185;988856;-66
2024/03/02 02:16:05;;;;;;;20.57;12.50;;;;;;;;;;750397;185;857916;-67
2024/03/02 02:18:31;;;;;;;16.13;12.13;;;;;;;;;;747286;184;926629;-66
2024/03/02 02:20:57;;;;;;;14.97;10.90;;;;;;;;;;753645;183;936070;-67
2024/03/02 02:23:22;;;;;;;13.50;10.40;;;;;;;;;;748454;185;1010623;-66
2024/03/02 02:25:48;;;;;;;13.60;10.27;;;;;;;;;;750352;184;919517;-66
2024/03/02 02:28:14;;;;;;;12.57;9.33;;;;;;;;;;754755;185;918821;-66
2024/03/02 02:30:40;;;;;;;13.97;10.50;;;;;;;;;;751229;184;916578;-67
2024/03/02 02:33:06;;;;;;;15.97;11.10;;;;;;;;;;749031;183;918864;-67
2024/03/02 02:35:32;;;;;;;15.30;11.73;;;;;;;;;;750430;184;919064;-67
2024/03/02 02:37:58;;;;;;;18.40;11.07;;;;;;;;;;758445;184;821735;-67
2024/03/02 02:40:23;;;;;;;15.50;11.30;;;;;;;;;;749629;184;820642;-67
2024/03/02 02:42:49;;;;;;;25.50;12.47;;;;;;;;;;749458;185;869381;-68
2024/03/02 02:45:15;;;;;;;21.63;11.33;;;;;;;;;;756694;185;873392;-67
2024/03/02 02:47:41;;;;;;;19.37;13.40;;;;;;;;;;751609;185;817066;-66
2024/03/02 02:50:07;;;;;;;21.87;14.27;;;;;;;;;;748845;184;919101;-67
2024/03/02 02:52:33;;;;;;;18.23;12.87;;;;;;;;;;755824;185;895626;-67
2024/03/02 02:54:59;;;;;;;24.27;15.57;;;;;;;;;;754231;185;918185;-68
2024/03/02 02:57:25;;;;;;;26.13;17.03;;;;;;;;;;751372;185;919317;-66
2024/03/02 02:59:51;;;;;;;20.57;14.50;;;;;;;;;;750292;185;929927;-67
2024/03/02 03:02:16;;;;;;;22.47;16.17;;;;;;;;;;753130;185;917057;-66
2024/03/02 03:04:42;;;;;;;25.80;16.20;;;;;;;;;;745330;185;914741;-67
2024/03/02 03:07:08;;;;;;;24.27;14.53;;;;;;;;;;751102;185;814123;-67
2024/03/02 03:09:34;;;;;;;19.43;13.60;;;;;;;;;;754856;186;848488;-67
2024/03/02 03:12:00;;;;;;;23.77;15.13;;;;;;;;;;749744;185;918454;-67
2024/03/02 03:14:26;;;;;;;27.85;13.60;;;;;;;;;;748553;185;919088;-67
2024/03/02 03:16:51;;;;;;;24.10;16.37;;;;;;;;;;753027;185;873569;-66
2024/03/02 03:19:17;;;;;;;21.67;15.67;;;;;;;;;;751876;185;918317;-67
2024/03/02 03:21:43;;;;;;;20.10;14.52;;;;;;;;;;752142;184;918775;-66
2024/03/02 03:24:09;;;;;;;17.40;14.00;;;;;;;;;;753510;185;917073;-67
2024/03/02 03:26:35;;;;;;;25.47;14.77;;;;;;;;;;745285;185;1021185;-67
2024/03/02 03:29:02;;;;;;;24.13;14.57;;;;;;;;;;749589;185;919447;-67
2024/03/02 03:31:26;;;;;;;22.73;14.50;;;;;;;;;;748906;182;916508;-67
2024/03/02 03:33:52;;;;;;;22.00;13.80;;;;;;;;;;756408;185;774814;-67
2024/03/02 03:36:18;;;;;;;20.90;12.40;;;;;;;;;;748631;185;917005;-67
2024/03/02 03:38:44;;;;;;;19.57;13.30;;;;;;;;;;749526;184;919398;-66
2024/03/02 03:41:10;;;;;;;19.80;13.93;;;;;;;;;;756984;185;918340;-67
2024/03/02 03:43:36;;;;;;;17.90;13.17;;;;;;;;;;750061;184;917931;-66
2024/03/02 03:46:02;;;;;;;21.53;14.77;;;;;;;;;;751478;185;819664;-67
2024/03/02 03:48:30;;;;;;;21.77;14.10;;;;;;;;;;755584;185;819824;-67
2024/03/02 03:50:53;;;;;;;20.73;13.60;;;;;;;;;;750817;184;918675;-67
2024/03/02 03:53:19;;;;;;;31.33;15.30;;;;;;;;;;751621;184;912182;-67
2024/03/02 03:55:46;;;;;;;20.70;14.33;;;;;;;;;;750279;184;918867;-67
2024/03/02 03:58:11;;;;;;;19.00;12.93;;;;;;;;;;755425;185;918595;-66
2024/03/02 04:00:37;;;;;;;19.70;12.47;;;;;;;;;;748985;185;919754;-66
2024/03/02 04:03:03;;;;;;;21.30;13.40;;;;;;;;;;750878;185;856099;-67
2024/03/02 04:05:28;;;;;;;24.87;14.50;;;;;;;;;;755512;185;919507;-67
2024/03/02 04:07:54;;;;;;;25.37;15.40;;;;;;;;;;750805;184;946794;-67
2024/03/02 04:10:20;;;;;;;23.03;16.23;;;;;;;;;;752388;185;853290;-67
2024/03/02 04:12:46;;;;;;;31.07;13.93;;;;;;;;;;755661;184;816386;-67
2024/03/02 04:15:12;;;;;;;21.23;14.93;;;;;;;;;;749298;185;897780;-66
2024/03/02 04:17:38;;;;;;;22.57;14.33;;;;;;;;;;749540;185;918433;-67
2024/03/02 04:20:05;;;;;;;21.60;14.40;;;;;;;;;;748559;184;991577;-67
2024/03/02 04:22:30;;;;;;;20.90;13.77;;;;;;;;;;753798;184;918992;-67
2024/03/02 04:24:56;;;;;;;29.97;13.73;;;;;;;;;;749302;185;944826;-67
2024/03/02 04:27:22;;;;;;;19.03;13.63;;;;;;;;;;748243;185;897187;-67
2024/03/02 04:29:48;;;;;;;22.17;15.20;;;;;;;;;;753373;185;917395;-66
2024/03/02 04:32:14;;;;;;;20.67;14.70;;;;;;;;;;748562;184;918856;-66
2024/03/02 04:34:40;;;;;;;26.05;15.27;;;;;;;;;;751353;185;940121;-67
2024/03/02 04:37:06;;;;;;;20.60;14.87;;;;;;;;;;755251;185;916143;-67
2024/03/02 04:39:31;;;;;;;24.37;15.67;;;;;;;;;;749574;185;866814;-68
2024/03/02 04:41:58;;;;;;;21.87;14.43;;;;;;;;;;749487;185;816665;-68
2024/03/02 04:44:23;;;;;;;27.57;16.07;;;;;;;;;;750886;185;919069;-67
2024/03/02 04:46:49;;;;;;;19.00;14.03;;;;;;;;;;747453;187;917843;-66
2024/03/02 04:49:15;;;;;;;25.63;17.37;;;;;;;;;;746525;185;919327;-67
2024/03/02 04:51:41;;;;;;;22.92;15.32;;;;;;;;;;748084;185;918744;-67
2024/03/02 04:54:07;;;;;;;27.17;16.33;;;;;;;;;;753736;185;920626;-66
2024/03/02 04:59:13;;;;;;;23.13;15.87;;;;;;;;;;749034;185;918424;-67
2024/03/02 05:01:39;;;;;;;25.07;17.00;;;;;;;;;;753454;184;868856;-68
2024/03/02 05:04:05;;;;;;;23.90;14.27;;;;;;;;;;756139;184;919934;-69
2024/03/02 05:06:31;;;;;;;19.73;13.80;;;;;;;;;;751099;185;922086;-67
2024/03/02 05:08:57;;;;;;;22.53;16.27;;;;;;;;;;749965;185;1017014;-67
2024/03/02 05:13:54;;;;;;;22.80;14.43;;;;;;;;;;755356;184;769161;-69
2024/03/02 05:16:20;;;;;;;20.48;12.90;;;;;;;;;;749185;184;918645;-69
2024/03/02 05:18:46;;;;;;;24.43;13.27;;;;;;;;;;752209;185;817087;-67
2024/03/02 05:21:11;;;;;;;19.53;12.67;;;;;;;;;;755035;185;920430;-68
2024/03/02 05:23:37;;;;;;;19.53;13.00;;;;;;;;;;754109;185;930822;-67
2024/03/02 05:26:03;;;;;;;18.27;12.13;;;;;;;;;;748426;185;924276;-70
2024/03/02 05:28:29;;;;;;;19.80;13.80;;;;;;;;;;754218;184;934998;-68
2024/03/02 05:30:55;;;;;;;22.83;14.40;;;;;;;;;;748977;184;1020884;-67
2024/03/02 05:33:22;;;;;;;19.73;13.57;;;;;;;;;;749393;182;909393;-68
2024/03/02 05:35:47;;;;;;;21.33;13.57;;;;;;;;;;749208;185;921971;-67
2024/03/02 05:38:12;;;;;;;25.70;13.63;;;;;;;;;;752779;185;893118;-67
2024/03/02 05:40:38;;;;;;;25.23;14.87;;;;;;;;;;751562;184;884809;-67
2024/03/02 05:43:04;;;;;;;20.10;14.33;;;;;;;;;;749077;184;918398;-66
2024/03/02 05:45:30;;;;;;;25.00;17.00;;;;;;;;;;755765;185;864280;-67
2024/03/02 05:47:56;;;;;;;21.43;14.10;;;;;;;;;;749530;185;914254;-68
2024/03/02 05:50:22;;;;;;;22.60;12.60;;;;;;;;;;748624;185;956432;-67
2024/03/02 05:52:47;;;;;;;18.03;12.53;;;;;;;;;;752805;184;895296;-68
2024/03/02 05:55:13;;;;;;;16.67;12.13;;;;;;;;;;750057;183;896789;-69
2024/03/02 06:00:24;;;;;;;17.50;11.53;;;;;;;;;;743660;185;705277;-68
2024/03/02 06:02:50;;;;;;;21.73;14.10;;;;;;;;;;748277;185;918534;-68
2024/03/02 06:05:17;;;;;;;21.83;14.70;;;;;;;;;;754753;184;855706;-67
2024/03/02 06:07:41;;;;;;;23.57;16.63;;;;;;;;;;748800;184;869509;-67
2024/03/02 06:10:08;;;;;;;22.33;15.47;;;;;;;;;;748170;183;819575;-68
2024/03/02 06:12:34;;;;;;;16.23;11.53;;;;;;;;;;755825;183;914194;-69
2024/03/02 06:15:00;;;;;;;16.33;13.57;;;;;;;;;;755433;184;620322;-68
2024/03/02 06:17:26;;;;;;;24.80;14.40;;;;;;;;;;754729;185;627790;-69
2024/03/02 06:19:52;;;;;;;24.00;13.00;;;;;;;;;;757296;184;631259;-68
2024/03/02 06:22:19;;;;;;;24.77;15.90;;;;;;;;;;752525;185;919149;-68
2024/03/02 06:24:44;;;;;;;33.58;15.25;;;;;;;;;;747077;185;921719;-67
2024/03/02 06:27:10;;;;;;;27.90;15.40;;;;;;;;;;749598;185;815414;-68
2024/03/02 06:29:36;;;;;;;21.17;16.17;;;;;;;;;;753493;185;918038;-66
2024/03/02 06:32:01;;;;;;;25.00;16.62;;;;;;;;;;750376;184;867658;-66
2024/03/02 06:34:28;;;;;;;21.87;14.50;;;;;;;;;;750153;185;819769;-66
2024/03/02 06:36:53;;;;;;;19.47;12.90;;;;;;;;;;757478;185;917787;-67
2024/03/02 06:39:19;;;;;;;20.80;14.40;;;;;;;;;;753124;182;818425;-67
2024/03/02 06:41:47;;;;;;;19.73;14.30;;;;;;;;;;751322;185;925352;-68
2024/03/02 06:44:11;;;;;;;22.00;14.27;;;;;;;;;;756139;182;833806;-69
2024/03/02 06:46:37;;;;;;;18.90;13.57;;;;;;;;;;751491;183;918295;-66
2024/03/02 06:49:03;;;;;;;19.13;13.87;;;;;;;;;;750850;184;633166;-67
2024/03/02 06:51:28;;;;;;;27.23;13.50;;;;;;;;;;752915;184;624973;-69
2024/03/02 06:53:55;;;;;;;19.47;14.00;;;;;;;;;;757516;183;633684;-68
2024/03/02 06:56:20;;;;;;;18.70;12.60;;;;;;;;;;754359;184;622856;-66
2024/03/02 06:58:46;;;;;;;23.00;15.87;;;;;;;;;;751787;185;782304;-68
2024/03/02 07:01:12;;;;;;;19.30;13.50;;;;;;;;;;757024;185;632365;-69
2024/03/02 07:03:39;;;;;;;22.70;15.40;;;;;;;;;;754065;185;623713;-68
2024/03/02 07:06:04;;;;;;;25.10;15.30;;;;;;;;;;753821;185;626189;-69
2024/03/02 07:08:29;;;;;;;21.70;15.90;;;;;;;;;;755713;185;625517;-67
2024/03/02 07:10:56;;;;;;;32.20;21.97;;;;;;;;;;751329;185;790921;-69
2024/03/02 07:13:21;;;;;;;22.67;14.93;;;;;;;;;;750240;184;904769;-68
2024/03/02 07:16:12;;;;;;;31.60;19.30;;;;;;;;;;752529;185;876132;-68
2024/03/02 07:18:13;;;;;;;24.63;18.53;;;;;;;;;;744325;184;918611;-68
2024/03/02 07:20:39;;;;;;;27.85;17.95;;;;;;;;;;747063;185;922360;-68
2024/03/02 07:23:05;;;;;;;25.37;18.27;;;;;;;;;;750589;184;872038;-68
2024/03/02 07:25:31;;;;;;;28.20;18.03;;;;;;;;;;757253;184;1020434;-67
2024/03/02 07:27:56;;;;;;;32.00;18.70;;;;;;;;;;751936;183;917653;-67
2024/03/02 07:30:22;;;;;;;24.63;17.57;;;;;;;;;;751564;184;816979;-67
2024/03/02 07:32:48;;;;;;;26.17;18.02;;;;;;;;;;753194;184;816089;-67
2024/03/02 07:35:14;;;;;;;27.13;18.67;;;;;;;;;;748122;184;920152;-67
2024/03/02 07:37:40;;;;;;;32.60;24.27;;;;;;;;;;747448;185;926784;-67
2024/03/02 07:40:09;;;;;;;36.60;26.37;;;;;;;;;;757058;185;626515;-69
2024/03/02 07:42:32;;;;;;;37.53;26.63;;;;;;;;;;755010;185;626674;-70
2024/03/02 07:44:58;;;;;;;39.10;26.30;;;;;;;;;;751690;185;633684;-67
2024/03/02 07:47:23;;;;;;;38.80;28.57;;;;;;;;;;752646;185;628806;-69
2024/03/02 07:49:49;;;;;;;28.33;18.83;;;;;;;;;;758656;184;627042;-67
2024/03/02 07:52:15;;;;;;;32.43;25.23;;;;;;;;;;755377;185;624601;-67
2024/03/02 07:54:41;;;;;;;29.27;18.70;;;;;;;;;;754874;185;613927;-69
2024/03/02 07:57:08;;;;;;;43.00;30.43;;;;;;;;;;757160;185;628044;-67
2024/03/02 07:59:33;;;;;;;37.80;26.60;;;;;;;;;;752283;185;623250;-69
2024/03/02 08:01:59;;;;;;;40.90;24.83;;;;;;;;;;749910;185;917260;-67
2024/03/02 08:04:24;;;;;;;38.47;25.00;;;;;;;;;;753814;185;684736;-66
2024/03/02 08:06:50;;;;;;;39.57;26.73;;;;;;;;;;751000;185;920010;-68
2024/03/02 08:09:16;;;;;;;56.20;40.83;;;;;;;;;;751734;185;819091;-68
2024/03/02 08:11:42;;;;;;;47.63;30.40;;;;;;;;;;752664;185;720678;-67
2024/03/02 08:14:08;;;;;;;37.27;24.67;;;;;;;;;;755767;185;627951;-67
2024/03/02 08:16:34;;;;;;;39.20;26.27;;;;;;;;;;749900;185;733746;-67
2024/03/02 08:18:59;;;;;;;34.03;21.10;;;;;;;;;;750178;185;812392;-67
2024/03/02 08:21:25;;;;;;;35.17;24.17;;;;;;;;;;755559;185;656197;-70
2024/03/02 08:23:51;;;;;;;31.00;20.40;;;;;;;;;;754970;184;629505;-69
2024/03/02 08:26:17;;;;;;;35.30;20.40;;;;;;;;;;751569;185;636359;-67
2024/03/02 08:28:43;;;;;;;44.50;26.40;;;;;;;;;;754284;184;855105;-68
2024/03/02 08:31:09;;;;;;;60.07;38.13;;;;;;;;;;752201;185;818804;-68
2024/03/02 08:33:34;;;;;;;58.53;36.25;;;;;;;;;;753603;184;626880;-68
2024/03/02 08:36:01;;;;;;;36.60;23.92;;;;;;;;;;757547;184;819075;-67
2024/03/02 08:38:27;;;;;;;28.23;18.37;;;;;;;;;;761644;183;651774;-69
2024/03/02 08:40:53;;;;;;;26.30;17.73;;;;;;;;;;753312;185;625835;-69
2024/03/02 08:43:19;;;;;;;37.73;22.57;;;;;;;;;;754850;184;630857;-66
2024/03/02 08:45:44;;;;;;;34.53;21.83;;;;;;;;;;757395;185;625716;-70
2024/03/02 08:48:10;;;;;;;26.83;17.07;;;;;;;;;;753399;185;625965;-69
2024/03/02 08:50:36;;;;;;;27.48;19.08;;;;;;;;;;748213;185;993620;-65
2024/03/02 08:53:02;;;;;;;27.23;19.50;;;;;;;;;;759628;185;629295;-69
2024/03/02 08:55:28;;;;;;;27.43;17.03;;;;;;;;;;755695;184;636499;-68
2024/03/02 08:57:54;;;;;;;31.87;20.07;;;;;;;;;;750200;184;900778;-68
2024/03/02 09:00:20;;;;;;;23.50;17.27;;;;;;;;;;754137;185;919427;-66
2024/03/02 09:02:45;;;;;;;26.77;17.07;;;;;;;;;;753414;184;635609;-66
2024/03/02 09:05:11;;;;;;;24.27;18.00;;;;;;;;;;754076;182;635716;-66
2024/03/02 09:07:40;;;;;;;24.23;18.17;;;;;;;;;;753435;185;628549;-66
2024/03/02 09:10:06;;;;;;;26.27;17.07;;;;;;;;;;756080;184;726937;-67
2024/03/02 09:12:32;;;;;;;23.07;15.80;;;;;;;;;;752926;184;624324;-66
2024/03/02 09:14:58;;;;;;;33.57;18.30;;;;;;;;;;750354;184;790871;-70
2024/03/02 09:17:24;;;;;;;25.03;17.83;;;;;;;;;;754841;185;908216;-67
2024/03/02 09:19:52;;;;;;;23.97;17.47;;;;;;;;;;756404;184;618526;-70
2024/03/02 09:22:15;;;;;;;39.77;20.40;;;;;;;;;;754251;184;629555;-67
2024/03/02 09:24:41;;;;;;;32.40;19.90;;;;;;;;;;755836;185;632498;-66
2024/03/02 09:27:07;;;;;;;43.70;22.60;;;;;;;;;;735723;185;659527;-66
2024/03/02 09:29:33;;;;;;;23.87;15.20;;;;;;;;;;753605;184;630411;-68
2024/03/02 09:31:58;;;;;;;32.60;18.70;;;;;;;;;;753383;185;641015;-69
2024/03/02 09:34:24;;;;;;;34.43;20.80;;;;;;;;;;755088;185;867243;-70
2024/03/02 09:36:51;;;;;;;28.30;19.63;;;;;;;;;;747373;185;919352;-66
2024/03/02 09:39:17;;;;;;;35.23;19.70;;;;;;;;;;749185;184;915415;-67
2024/03/02 09:41:42;;;;;;;26.03;16.30;;;;;;;;;;756537;185;634072;-69
2024/03/02 09:44:08;;;;;;;25.63;17.50;;;;;;;;;;754211;184;632104;-66
2024/03/02 09:46:35;;;;;;;26.63;17.10;;;;;;;;;;754736;185;642736;-69
2024/03/02 09:48:59;;;;;;;22.53;14.13;;;;;;;;;;757451;184;711587;-67
2024/03/02 09:51:25;;;;;;;24.90;17.23;;;;;;;;;;751094;185;911931;-67
2024/03/02 09:53:51;;;;;;;23.63;16.00;;;;;;;;;;752515;185;919472;-69
2024/03/02 09:56:18;;;;;;;22.13;13.93;;;;;;;;;;751261;185;924449;-67
2024/03/02 09:58:43;;;;;;;22.87;15.70;;;;;;;;;;751902;186;920379;-70
2024/03/02 10:01:10;;;;;;;21.90;14.37;;;;;;;;;;748706;184;918767;-69
2024/03/02 10:03:37;;;;;;;20.23;13.67;;;;;;;;;;750557;184;870449;-70
2024/03/02 10:06:08;;;;;;;23.20;15.60;;;;;;;;;;756263;185;916893;-67
2024/03/02 10:08:43;;;;;;;30.00;17.00;;;;;;;;;;754815;184;876253;-70
2024/03/02 10:11:09;;;;;;;21.63;14.40;;;;;;;;;;750354;185;821056;-66
2024/03/02 10:13:35;;;;;;;25.48;14.82;;;;;;;;;;749421;185;921347;-67
2024/03/02 10:16:00;;;;;;;39.63;16.00;;;;;;;;;;754596;185;816759;-69
2024/03/02 10:18:26;;;;;;;21.23;14.77;;;;;;;;;;749428;185;815476;-70
2024/03/02 10:20:52;;;;;;;26.60;16.10;;;;;;;;;;748099;185;917684;-68
2024/03/02 10:23:18;;;;;;;21.97;13.70;;;;;;;;;;752678;185;714365;-68
2024/03/02 10:25:45;;;;;;;23.23;13.53;;;;;;;;;;747363;185;811402;-66
2024/03/02 10:28:10;;;;;;;23.40;13.00;;;;;;;;;;745259;185;784491;-66
2024/03/02 10:30:36;;;;;;;59.85;29.35;;;;;;;;;;749279;184;863213;-68
2024/03/02 10:33:02;;;;;;;20.27;14.70;;;;;;;;;;754174;185;1016061;-69
2024/03/02 10:35:27;;;;;;;23.53;14.60;;;;;;;;;;750678;184;919294;-67
2024/03/02 10:37:53;;;;;;;32.60;17.70;;;;;;;;;;748590;185;1028458;-67
2024/03/02 10:40:22;;;;;;;25.03;15.37;;;;;;;;;;754010;184;1005334;-66
2024/03/02 10:42:48;;;;;;;21.97;16.37;;;;;;;;;;748992;185;909264;-70
2024/03/02 10:45:14;;;;;;;23.23;14.50;;;;;;;;;;750415;185;916162;-68
2024/03/02 10:47:40;;;;;;;29.50;17.67;;;;;;;;;;751339;185;913302;-68
2024/03/02 10:50:08;;;;;;;22.40;13.50;;;;;;;;;;757975;185;919344;-69
2024/03/02 10:52:32;;;;;;;26.53;13.83;;;;;;;;;;747369;184;1094193;-66
2024/03/02 10:54:58;;;;;;;21.30;14.03;;;;;;;;;;750840;184;855097;-69
2024/03/02 10:57:24;;;;;;;31.37;20.70;;;;;;;;;;755786;185;917520;-67
2024/03/02 10:59:51;;;;;;;18.13;12.17;;;;;;;;;;751313;184;852752;-67
2024/03/02 11:02:17;;;;;;;21.23;13.77;;;;;;;;;;750284;185;1021681;-70
2024/03/02 11:04:43;;;;;;;22.65;16.48;;;;;;;;;;754525;185;868261;-68
2024/03/02 11:07:09;;;;;;;17.63;11.27;;;;;;;;;;751320;185;919649;-66
2024/03/02 11:09:35;;;;;;;18.70;12.37;;;;;;;;;;750323;184;824639;-70
2024/03/02 11:12:03;;;;;;;15.47;11.63;;;;;;;;;;751364;184;819343;-68
2024/03/02 11:14:29;;;;;;;16.63;11.10;;;;;;;;;;755364;185;819222;-68
2024/03/02 11:16:55;;;;;;;17.00;10.43;;;;;;;;;;749659;185;879073;-69
2024/03/02 11:19:21;;;;;;;13.73;8.60;;;;;;;;;;749793;185;923408;-67
2024/03/02 11:21:46;;;;;;;16.37;11.77;;;;;;;;;;754081;184;889296;-68
2024/03/02 11:24:18;;;;;;;18.23;9.27;;;;;;;;;;751585;185;919336;-67
2024/03/02 11:26:44;;;;;;;13.97;8.90;;;;;;;;;;752439;185;917905;-68
2024/03/02 11:29:10;;;;;;;18.15;11.73;;;;;;;;;;748421;184;918609;-68
2024/03/02 11:31:41;;;;;;;15.60;11.03;;;;;;;;;;752348;185;919428;-69
2024/03/02 11:34:13;;;;;;;18.57;12.30;;;;;;;;;;750836;184;786479;-69
2024/03/02 11:36:39;;;;;;;20.53;11.00;;;;;;;;;;753231;185;621222;-69
2024/03/02 11:39:05;;;;;;;14.67;10.80;;;;;;;;;;749380;185;995975;-69
2024/03/02 11:41:31;;;;;;;21.57;10.47;;;;;;;;;;751815;185;916592;-67
2024/03/02 11:43:56;;;;;;;15.90;9.40;;;;;;;;;;749095;185;918098;-68
2024/03/02 11:46:23;;;;;;;13.90;9.53;;;;;;;;;;748820;185;918704;-68
2024/03/02 11:48:48;;;;;;;15.53;10.30;;;;;;;;;;754681;184;916784;-67
2024/03/02 11:51:14;;;;;;;23.67;12.97;;;;;;;;;;749504;183;936969;-67
2024/03/02 11:53:40;;;;;;;17.30;10.40;;;;;;;;;;751388;185;922396;-68
2024/03/02 11:56:06;;;;;;;19.10;10.37;;;;;;;;;;754952;185;919128;-69
2024/03/02 11:58:32;;;;;;;18.17;9.50;;;;;;;;;;754494;182;656151;-69
2024/03/02 12:00:57;;;;;;;17.90;10.33;;;;;;;;;;751867;185;631323;-69
2024/03/02 12:03:25;;;;;;;18.23;10.30;;;;;;;;;;754185;184;615020;-69
2024/03/02 12:05:49;;;;;;;19.07;12.00;;;;;;;;;;756446;185;818318;-69
2024/03/02 12:08:15;;;;;;;19.00;11.90;;;;;;;;;;748294;185;916755;-68
2024/03/02 12:10:41;;;;;;;15.70;9.90;;;;;;;;;;749761;185;915459;-67
2024/03/02 12:13:07;;;;;;;30.03;9.43;;;;;;;;;;757380;184;863783;-68
2024/03/02 12:15:32;;;;;;;14.77;8.80;;;;;;;;;;753161;185;814037;-68
2024/03/02 12:17:58;;;;;;;15.10;8.70;;;;;;;;;;752237;184;915666;-69
2024/03/02 12:20:24;;;;;;;13.23;8.37;;;;;;;;;;757555;184;859013;-68
2024/03/02 12:22:52;;;;;;;14.43;9.90;;;;;;;;;;748773;184;903496;-67
2024/03/02 12:25:18;;;;;;;18.13;11.27;;;;;;;;;;750931;185;917784;-69
2024/03/02 12:27:43;;;;;;;24.83;13.77;;;;;;;;;;750457;184;920184;-67
2024/03/02 12:30:10;;;;;;;19.60;13.27;;;;;;;;;;753385;185;857948;-68
2024/03/02 12:32:36;;;;;;;21.70;11.97;;;;;;;;;;750083;185;807515;-68
2024/03/02 12:35:02;;;;;;;18.10;10.77;;;;;;;;;;751395;184;807583;-67
2024/03/02 12:37:28;;;;;;;16.33;10.07;;;;;;;;;;754177;185;921028;-67
2024/03/02 12:39:53;;;;;;;14.80;10.00;;;;;;;;;;752053;185;919939;-67
2024/03/02 12:42:19;;;;;;;16.10;10.57;;;;;;;;;;748255;185;920526;-68
2024/03/02 12:44:45;;;;;;;18.03;11.63;;;;;;;;;;752268;185;886357;-68
2024/03/02 12:47:12;;;;;;;23.38;15.90;;;;;;;;;;748886;185;918040;-67
2024/03/02 12:49:37;;;;;;;21.40;12.67;;;;;;;;;;752065;185;721834;-68
2024/03/02 12:52:03;;;;;;;12.67;8.63;;;;;;;;;;754137;181;860101;-67
2024/03/02 12:54:28;;;;;;;18.40;12.60;;;;;;;;;;746722;185;2095983;-68
2024/03/02 12:56:54;;;;;;;19.27;11.53;;;;;;;;;;749540;185;836920;-69
2024/03/02 12:59:22;;;;;;;16.90;13.30;;;;;;;;;;749885;185;918830;-67
2024/03/02 13:01:51;;;;;;;19.60;12.13;;;;;;;;;;754114;185;920936;-67
2024/03/02 13:04:17;;;;;;;22.70;12.70;;;;;;;;;;749981;185;931376;-68
2024/03/02 13:06:43;;;;;;;18.02;11.52;;;;;;;;;;752928;185;875463;-67
2024/03/02 13:09:14;;;;;;;16.30;10.30;;;;;;;;;;749657;184;818726;-67
2024/03/02 13:11:35;;;;;;;15.47;10.60;;;;;;;;;;750871;185;918016;-69
2024/03/02 13:14:00;;;;;;;17.70;11.70;;;;;;;;;;749080;185;917738;-67
2024/03/02 13:16:26;;;;;;;16.13;12.50;;;;;;;;;;751605;184;773932;-67
2024/03/02 13:18:52;;;;;;;22.00;12.93;;;;;;;;;;754067;185;922811;-71
2024/03/02 13:21:18;;;;;;;20.37;13.57;;;;;;;;;;750750;184;917340;-68
2024/03/02 13:23:43;;;;;;;19.93;12.23;;;;;;;;;;751285;184;824537;-68
2024/03/02 13:26:10;;;;;;;17.37;12.80;;;;;;;;;;754331;184;919427;-68
2024/03/02 13:28:35;;;;;;;17.47;10.80;;;;;;;;;;753095;184;916829;-67
2024/03/02 13:31:01;;;;;;;19.70;10.27;;;;;;;;;;751560;183;929609;-69
2024/03/02 13:33:27;;;;;;;17.23;10.33;;;;;;;;;;749947;183;918549;-69
2024/03/02 13:35:53;;;;;;;28.33;20.17;;;;;;;;;;752603;184;816902;-68
2024/03/02 13:38:19;;;;;;;28.50;15.70;;;;;;;;;;750105;183;1023547;-67
2024/03/02 13:40:44;;;;;;;19.13;13.30;;;;;;;;;;752828;184;626331;-68
2024/03/02 13:43:11;;;;;;;28.10;13.97;;;;;;;;;;754248;184;814169;-71
2024/03/02 13:45:36;;;;;;;17.27;11.53;;;;;;;;;;752271;185;816545;-68
2024/03/02 13:48:03;;;;;;;15.87;11.00;;;;;;;;;;753605;185;620649;-69
2024/03/02 13:50:30;;;;;;;15.07;11.27;;;;;;;;;;753493;185;991251;-68
2024/03/02 13:52:54;;;;;;;16.00;10.80;;;;;;;;;;755557;185;628882;-69
2024/03/02 13:55:20;;;;;;;14.83;10.73;;;;;;;;;;754430;185;623140;-68
2024/03/02 13:57:45;;;;;;;14.10;11.57;;;;;;;;;;757168;185;636187;-68
2024/03/02 14:00:12;;;;;;;17.87;12.67;;;;;;;;;;752799;183;632095;-67
2024/03/02 14:02:37;;;;;;;15.57;10.93;;;;;;;;;;754392;185;616331;-70
2024/03/02 14:05:03;;;;;;;19.30;13.13;;;;;;;;;;753837;184;618551;-70